createdAt,value
2022-10-01T00:02:01.510Z,1.50
2022-10-01T00:04:29.887Z,1.50
2022-10-01T00:07:05.252Z,1.70
2022-10-01T00:09:33.760Z,1.40
2022-10-01T00:12:01.712Z,1.50
2022-10-01T00:14:30.196Z,1.40
2022-10-01T00:16:58.249Z,1.30
2022-10-01T00:19:27.065Z,1.30
2022-10-01T00:21:55.537Z,1.60
2022-10-01T00:25:00.779Z,1.60
2022-10-01T00:27:30.819Z,1.90
2022-10-01T00:33:47.255Z,1.40
2022-10-01T00:36:15.804Z,1.50
2022-10-01T00:38:49.719Z,1.40
2022-10-01T00:41:42.584Z,1.60
2022-10-01T00:44:30.019Z,1.30
2022-10-01T00:47:27.204Z,1.30
2022-10-01T00:50:33.200Z,1.70
2022-10-01T00:53:29.162Z,2.20
2022-10-01T00:56:11.878Z,1.40
2022-10-01T00:58:40.337Z,1.90
2022-10-01T01:01:20.767Z,1.40
2022-10-01T01:03:50.629Z,1.20
2022-10-01T01:06:33.193Z,1.10
2022-10-01T01:09:29.288Z,1.40
2022-10-01T01:12:17.250Z,1.20
2022-10-01T01:15:23.262Z,1.30
2022-10-01T01:18:21.229Z,1.30
2022-10-01T01:21:17.165Z,1.30
2022-10-01T01:24:49.224Z,1.10
2022-10-01T01:28:00.295Z,1.10
2022-10-01T01:31:12.280Z,1.20
2022-10-01T01:34:22.086Z,1.60
2022-10-01T01:37:42.148Z,1.40
2022-10-01T01:41:13.121Z,1.50
2022-10-01T01:44:44.147Z,1.30
2022-10-01T01:47:39.206Z,1.80
2022-10-01T01:51:19.167Z,2.00
2022-10-01T01:54:19.148Z,1.30
2022-10-01T02:03:35.242Z,1.40
2022-10-01T02:06:48.417Z,1.80
2022-10-01T02:10:19.613Z,1.60
2022-10-01T02:13:20.183Z,1.70
2022-10-01T02:16:17.145Z,1.80
2022-10-01T02:19:52.228Z,1.50
2022-10-01T02:22:50.554Z,1.40
2022-10-01T02:26:00.184Z,1.00
2022-10-01T02:29:26.132Z,2.10
2022-10-01T02:36:26.185Z,1.10
2022-10-01T02:39:29.164Z,1.10
2022-10-01T02:43:00.166Z,1.40
2022-10-01T02:46:23.164Z,1.40
2022-10-01T02:49:33.158Z,1.50
2022-10-01T02:52:50.110Z,1.60
2022-10-01T02:55:45.151Z,2.40
2022-10-01T02:58:58.114Z,3.30
2022-10-01T03:02:16.259Z,2.10
2022-10-01T03:05:28.178Z,3.10
2022-10-01T03:08:50.897Z,2.50
2022-10-01T03:12:03.268Z,2.10
2022-10-01T03:15:03.115Z,2.40
2022-10-01T03:18:12.256Z,2.50
2022-10-01T03:21:26.223Z,2.10
2022-10-01T03:24:43.120Z,2.50
2022-10-01T03:28:02.836Z,2.30
2022-10-01T03:31:13.191Z,2.10
2022-10-01T03:34:20.191Z,2.10
2022-10-01T03:37:38.179Z,1.90
2022-10-01T03:40:47.214Z,2.10
2022-10-01T03:43:42.230Z,2.00
2022-10-01T03:46:50.083Z,1.70
2022-10-01T03:49:53.226Z,1.80
2022-10-01T03:52:51.115Z,1.80
2022-10-01T03:55:45.174Z,2.50
2022-10-01T03:58:47.209Z,2.90
2022-10-01T04:02:11.301Z,3.20
2022-10-01T04:05:37.151Z,2.70
2022-10-01T04:08:40.196Z,2.80
2022-10-01T04:11:49.099Z,3.10
2022-10-01T04:14:44.300Z,3.60
2022-10-01T04:17:53.119Z,3.90
2022-10-01T04:21:02.178Z,3.50
2022-10-01T04:24:00.105Z,4.20
2022-10-01T04:27:02.186Z,4.10
2022-10-01T04:30:15.129Z,3.90
2022-10-01T04:33:32.537Z,3.90
2022-10-01T04:36:44.112Z,3.60
2022-10-01T04:39:58.187Z,4.00
2022-10-01T04:43:05.125Z,3.40
2022-10-01T04:46:24.574Z,3.40
2022-10-01T04:49:45.430Z,3.50
2022-10-01T04:52:33.368Z,2.10
2022-10-01T04:55:39.138Z,2.30
2022-10-01T04:58:33.231Z,2.30
2022-10-01T05:01:29.138Z,4.70
2022-10-01T05:04:41.262Z,2.60
2022-10-01T05:07:53.090Z,3.30
2022-10-01T05:10:51.267Z,2.50
2022-10-01T05:14:13.103Z,2.50
2022-10-01T05:20:55.235Z,2.10
2022-10-01T05:23:56.399Z,2.10
2022-10-01T05:27:40.136Z,2.40
2022-10-01T05:31:06.292Z,2.60
2022-10-01T05:34:04.167Z,2.20
2022-10-01T05:37:27.572Z,2.20
2022-10-01T05:40:41.263Z,3.90
2022-10-01T05:43:50.124Z,4.80
2022-10-01T05:46:55.195Z,4.70
2022-10-01T05:49:50.203Z,3.90
2022-10-01T05:53:02.210Z,4.10
2022-10-01T05:56:26.128Z,4.20
2022-10-01T05:59:59.178Z,4.40
2022-10-01T06:03:32.219Z,4.80
2022-10-01T06:06:38.211Z,3.90
2022-10-01T06:09:34.235Z,4.60
2022-10-01T06:12:19.802Z,4.10
2022-10-01T06:14:50.414Z,5.00
2022-10-01T06:17:18.873Z,5.50
2022-10-01T06:19:46.821Z,6.20
2022-10-01T06:22:15.492Z,6.50
2022-10-01T06:24:44.088Z,7.30
2022-10-01T06:27:12.359Z,7.20
2022-10-01T06:29:40.414Z,7.00
2022-10-01T06:32:14.118Z,5.80
2022-10-01T06:34:42.527Z,6.00
2022-10-01T06:37:10.621Z,5.40
2022-10-01T06:39:38.653Z,5.00
2022-10-01T06:42:06.566Z,5.10
2022-10-01T06:44:34.497Z,4.50
2022-10-01T06:47:02.509Z,5.20
2022-10-01T06:49:30.562Z,5.00
2022-10-01T06:52:14.609Z,5.60
2022-10-01T06:55:16.498Z,5.70
2022-10-01T06:57:46.766Z,5.60
2022-10-01T07:00:15.667Z,5.80
2022-10-01T07:02:43.781Z,5.60
2022-10-01T07:05:19.287Z,6.10
2022-10-01T07:07:48.884Z,5.70
2022-10-01T07:10:26.040Z,6.00
2022-10-01T07:12:54.272Z,7.50
2022-10-01T07:15:23.450Z,6.20
2022-10-01T07:17:52.438Z,6.80
2022-10-01T07:20:53.204Z,6.70
2022-10-01T07:23:40.373Z,7.20
2022-10-01T07:28:37.270Z,8.20
2022-10-01T07:31:11.264Z,8.30
2022-10-01T07:33:39.879Z,9.50
2022-10-01T07:36:11.213Z,11.50
2022-10-01T07:38:39.615Z,11.30
2022-10-01T07:41:08.089Z,11.70
2022-10-01T07:43:36.680Z,10.10
2022-10-01T07:46:07.335Z,10.30
2022-10-01T07:48:37.220Z,9.20
2022-10-01T07:51:08.976Z,9.00
2022-10-01T07:53:37.030Z,9.90
2022-10-01T07:56:05.299Z,9.30
2022-10-01T07:58:33.480Z,8.90
2022-10-01T08:01:04.550Z,8.10
2022-10-01T08:03:32.704Z,6.90
2022-10-01T08:06:03.443Z,6.00
2022-10-01T08:08:32.067Z,6.60
2022-10-01T08:11:03.073Z,6.00
2022-10-01T08:13:31.087Z,6.70
2022-10-01T08:15:59.252Z,6.90
2022-10-01T08:18:27.367Z,6.40
2022-10-01T08:20:55.621Z,6.30
2022-10-01T08:23:24.277Z,5.90
2022-10-01T08:25:54.146Z,11.50
2022-10-01T08:28:22.540Z,10.60
2022-10-01T08:30:50.937Z,8.70
2022-10-01T08:33:18.916Z,8.60
2022-10-01T08:35:47.098Z,11.10
2022-10-01T08:38:15.693Z,9.50
2022-10-01T08:40:50.486Z,6.70
2022-10-01T08:43:31.746Z,8.90
2022-10-01T08:46:05.655Z,7.70
2022-10-01T08:49:03.467Z,7.30
2022-10-01T08:51:51.752Z,6.80
2022-10-01T08:54:34.344Z,6.10
2022-10-01T08:57:05.390Z,5.50
2022-10-01T08:59:51.948Z,6.30
2022-10-01T09:02:24.818Z,6.70
2022-10-01T09:05:01.867Z,6.90
2022-10-01T09:07:48.406Z,7.20
2022-10-01T09:10:31.837Z,7.20
2022-10-01T09:13:23.086Z,7.30
2022-10-01T09:16:27.380Z,7.70
2022-10-01T09:19:27.332Z,8.20
2022-10-01T09:22:02.064Z,7.40
2022-10-01T09:24:58.241Z,6.20
2022-10-01T09:27:28.173Z,5.90
2022-10-01T09:30:01.675Z,5.20
2022-10-01T09:32:36.198Z,4.50
2022-10-01T09:35:19.384Z,5.00
2022-10-01T09:37:56.301Z,5.30
2022-10-01T09:40:39.442Z,5.20
2022-10-01T09:43:10.058Z,5.00
2022-10-01T09:45:39.377Z,4.30
2022-10-01T09:48:29.528Z,4.70
2022-10-01T09:51:07.851Z,4.00
2022-10-01T09:53:42.114Z,4.30
2022-10-01T09:56:17.344Z,4.30
2022-10-01T09:58:52.910Z,3.30
2022-10-01T10:01:27.271Z,2.00
2022-10-01T10:03:57.945Z,2.90
2022-10-01T10:07:03.263Z,2.70
2022-10-01T10:10:08.140Z,3.50
2022-10-01T10:13:26.555Z,3.40
2022-10-01T10:16:29.744Z,3.00
2022-10-01T10:19:02.324Z,2.40
2022-10-01T10:21:34.903Z,2.80
2022-10-01T10:24:06.358Z,2.80
2022-10-01T10:26:42.507Z,2.80
2022-10-01T10:31:57.527Z,1.70
2022-10-01T10:34:39.821Z,1.80
2022-10-01T10:37:18.446Z,1.00
2022-10-01T10:39:52.165Z,1.30
2022-10-01T10:42:22.577Z,1.30
2022-10-01T10:44:55.025Z,1.20
2022-10-01T10:47:24.455Z,1.00
2022-10-01T10:49:56.716Z,0.80
2022-10-01T10:52:36.227Z,1.10
2022-10-01T10:55:23.475Z,1.10
2022-10-01T10:57:57.293Z,0.90
2022-10-01T11:00:27.517Z,1.00
2022-10-01T11:03:00.228Z,1.40
2022-10-01T11:05:34.002Z,0.90
2022-10-01T11:08:06.615Z,0.70
2022-10-01T11:10:57.835Z,1.00
2022-10-01T11:13:50.736Z,0.60
2022-10-01T11:16:40.638Z,0.70
2022-10-01T11:19:27.256Z,0.80
2022-10-01T11:22:22.186Z,0.80
2022-10-01T11:25:19.994Z,1.00
2022-10-01T11:31:28.495Z,0.70
2022-10-01T11:34:32.144Z,0.60
2022-10-01T11:37:17.744Z,0.80
2022-10-01T11:39:51.837Z,0.70
2022-10-01T11:42:27.903Z,0.90
2022-10-01T11:45:11.328Z,0.80
2022-10-01T11:47:52.628Z,0.80
2022-10-01T11:53:31.230Z,0.90
2022-10-01T11:56:22.884Z,0.80
2022-10-01T11:59:04.781Z,0.70
2022-10-01T12:01:42.631Z,0.80
2022-10-01T12:04:25.424Z,0.60
2022-10-01T12:07:01.026Z,0.90
2022-10-01T12:09:44.989Z,1.00
2022-10-01T12:12:19.627Z,0.70
2022-10-01T12:15:01.695Z,1.00
2022-10-01T12:17:41.509Z,0.90
2022-10-01T12:20:39.339Z,0.70
2022-10-01T12:23:21.289Z,0.90
2022-10-01T12:26:20.431Z,0.80
2022-10-01T12:29:02.006Z,0.90
2022-10-01T12:31:57.529Z,0.80
2022-10-01T12:34:39.241Z,0.70
2022-10-01T12:37:25.388Z,0.90
2022-10-01T12:42:54.449Z,0.80
2022-10-01T12:46:02.993Z,1.00
2022-10-01T12:48:47.707Z,0.90
2022-10-01T12:51:39.087Z,0.70
2022-10-01T12:54:24.277Z,1.20
2022-10-01T12:57:25.322Z,0.80
2022-10-01T13:00:12.662Z,0.70
2022-10-01T13:03:13.940Z,0.80
2022-10-01T13:06:04.076Z,1.00
2022-10-01T13:09:00.181Z,0.80
2022-10-01T13:12:20.731Z,0.60
2022-10-01T13:14:50.199Z,0.80
2022-10-01T13:17:48.732Z,0.80
2022-10-01T13:20:31.261Z,0.80
2022-10-01T13:23:28.239Z,1.00
2022-10-01T13:26:13.432Z,0.90
2022-10-01T13:29:08.374Z,1.10
2022-10-01T13:31:51.611Z,0.90
2022-10-01T13:34:36.380Z,0.70
2022-10-01T13:37:20.424Z,0.90
2022-10-01T13:39:48.594Z,1.30
2022-10-01T13:42:26.189Z,0.90
2022-10-01T13:45:00.195Z,1.00
2022-10-01T13:47:29.111Z,0.80
2022-10-01T13:50:04.382Z,0.80
2022-10-01T13:52:35.982Z,0.90
2022-10-01T13:55:04.207Z,1.00
2022-10-01T13:57:36.297Z,1.00
2022-10-01T14:00:22.767Z,0.80
2022-10-01T14:03:07.705Z,0.60
2022-10-01T14:06:00.335Z,0.90
2022-10-01T14:08:51.247Z,1.00
2022-10-01T14:12:01.012Z,1.10
2022-10-01T14:15:01.105Z,0.90
2022-10-01T14:17:36.651Z,1.00
2022-10-01T14:20:06.632Z,1.00
2022-10-01T14:22:55.119Z,1.10
2022-10-01T14:25:53.548Z,1.00
2022-10-01T14:29:01.739Z,1.00
2022-10-01T14:32:02.918Z,0.80
2022-10-01T14:34:42.556Z,1.20
2022-10-01T14:37:17.342Z,1.20
2022-10-01T14:42:36.411Z,1.20
2022-10-01T14:45:17.611Z,1.20
2022-10-01T14:47:48.879Z,1.30
2022-10-01T14:50:40.960Z,1.00
2022-10-01T14:53:27.565Z,1.00
2022-10-01T14:56:02.651Z,1.00
2022-10-01T14:58:36.636Z,1.20
2022-10-01T15:01:26.602Z,1.10
2022-10-01T15:04:16.154Z,1.30
2022-10-01T15:07:10.566Z,0.90
2022-10-01T15:10:12.487Z,1.20
2022-10-01T15:13:07.486Z,1.10
2022-10-01T15:15:49.391Z,1.30
2022-10-01T15:18:21.190Z,1.30
2022-10-01T15:21:08.715Z,1.20
2022-10-01T15:24:03.298Z,1.10
2022-10-01T15:26:52.661Z,1.40
2022-10-01T15:29:47.028Z,1.00
2022-10-01T15:32:35.850Z,1.00
2022-10-01T15:36:02.147Z,1.10
2022-10-01T15:38:40.077Z,1.40
2022-10-01T15:41:59.390Z,1.10
2022-10-01T15:45:01.504Z,1.40
2022-10-01T15:48:23.276Z,1.50
2022-10-01T15:51:44.865Z,1.70
2022-10-01T15:55:00.709Z,1.60
2022-10-01T15:57:50.093Z,1.60
2022-10-01T16:01:22.205Z,2.00
2022-10-01T16:04:28.426Z,1.60
2022-10-01T16:07:05.554Z,3.40
2022-10-01T16:09:57.794Z,3.00
2022-10-01T16:13:03.445Z,2.20
2022-10-01T16:16:13.987Z,2.10
2022-10-01T16:19:41.591Z,1.70
2022-10-01T16:22:54.022Z,1.60
2022-10-01T16:26:12.122Z,1.80
2022-10-01T16:29:42.458Z,1.70
2022-10-01T16:32:30.706Z,1.90
2022-10-01T16:35:30.247Z,1.60
2022-10-01T16:38:07.159Z,1.80
2022-10-01T16:40:40.322Z,2.40
2022-10-01T16:43:25.515Z,1.90
2022-10-01T16:46:00.814Z,1.80
2022-10-01T16:48:34.356Z,2.40
2022-10-01T16:51:07.649Z,1.80
2022-10-01T16:53:36.229Z,2.20
2022-10-01T16:56:04.919Z,2.30
2022-10-01T16:58:32.859Z,2.20
2022-10-01T17:01:06.728Z,2.60
2022-10-01T17:03:37.751Z,3.20
2022-10-01T17:06:50.562Z,3.90
2022-10-01T17:10:03.231Z,3.30
2022-10-01T17:17:37.254Z,1.10
2022-10-01T17:20:58.590Z,1.10
2022-10-01T17:24:17.051Z,1.40
2022-10-01T17:27:49.329Z,1.00
2022-10-01T17:31:07.727Z,1.20
2022-10-01T17:33:56.177Z,0.80
2022-10-01T17:36:46.573Z,0.90
2022-10-01T17:39:30.761Z,0.70
2022-10-01T17:41:59.246Z,0.90
2022-10-01T17:45:18.280Z,0.70
2022-10-01T17:48:58.943Z,0.90
2022-10-01T17:51:57.260Z,0.70
2022-10-01T17:55:18.710Z,0.80
2022-10-01T17:58:31.255Z,0.90
2022-10-01T18:04:39.268Z,1.00
2022-10-01T18:07:51.188Z,1.00
2022-10-01T18:11:03.253Z,1.30
2022-10-01T18:17:17.630Z,1.00
2022-10-01T18:20:29.203Z,1.30
2022-10-01T18:23:41.272Z,1.50
2022-10-01T18:27:12.216Z,1.80
2022-10-01T18:30:21.293Z,1.50
2022-10-01T18:33:33.300Z,1.40
2022-10-01T18:36:43.205Z,1.50
2022-10-01T18:39:55.289Z,1.30
2022-10-01T18:43:04.279Z,1.60
2022-10-01T18:46:34.500Z,1.10
2022-10-01T18:49:47.216Z,1.80
2022-10-01T18:52:53.277Z,1.40
2022-10-01T18:56:05.242Z,1.10
2022-10-01T18:59:15.332Z,1.50
2022-10-01T19:02:27.270Z,1.20
2022-10-01T19:05:57.187Z,1.30
2022-10-01T19:08:56.301Z,0.90
2022-10-01T19:11:55.277Z,1.20
2022-10-01T19:14:53.383Z,1.50
2022-10-01T19:17:40.502Z,1.70
2022-10-01T19:23:32.518Z,1.60
2022-10-01T19:27:13.284Z,1.30
2022-10-01T19:30:08.088Z,1.50
2022-10-01T19:33:07.286Z,1.40
2022-10-01T19:39:43.304Z,3.20
2022-10-01T19:42:47.621Z,2.80
2022-10-01T19:46:03.282Z,3.50
2022-10-01T19:49:09.276Z,3.80
2022-10-01T19:52:26.221Z,4.50
2022-10-01T19:55:36.360Z,4.50
2022-10-01T19:58:32.295Z,4.60
2022-10-01T20:01:41.335Z,4.20
2022-10-01T20:04:23.874Z,4.20
2022-10-01T20:07:16.734Z,3.50
2022-10-01T20:09:48.980Z,3.70
2022-10-01T20:12:45.333Z,3.80
2022-10-01T20:16:00.385Z,1.90
2022-10-01T20:19:14.199Z,2.30
2022-10-01T20:22:26.248Z,2.20
2022-10-01T20:25:42.232Z,1.70
2022-10-01T20:28:55.265Z,1.30
2022-10-01T20:32:16.240Z,0.90
2022-10-01T20:35:15.818Z,1.20
2022-10-01T20:38:23.328Z,1.30
2022-10-01T20:41:31.263Z,1.60
2022-10-01T20:44:39.278Z,0.90
2022-10-01T20:47:51.272Z,0.90
2022-10-01T20:50:46.225Z,0.90
2022-10-01T20:53:32.402Z,0.80
2022-10-01T20:56:40.289Z,1.00
2022-10-01T20:59:53.205Z,1.10
2022-10-01T21:03:04.285Z,1.20
2022-10-01T21:05:56.722Z,0.90
2022-10-01T21:08:57.266Z,1.10
2022-10-01T21:12:07.221Z,1.20
2022-10-01T21:15:04.661Z,1.10
2022-10-01T21:18:15.240Z,1.00
2022-10-01T21:21:25.513Z,0.60
2022-10-01T21:24:34.658Z,0.90
2022-10-01T21:27:54.273Z,0.60
2022-10-01T21:31:06.230Z,0.70
2022-10-01T21:34:27.238Z,0.60
2022-10-01T21:37:33.227Z,0.60
2022-10-01T21:40:39.267Z,0.70
2022-10-01T21:43:42.637Z,0.70
2022-10-01T21:46:49.381Z,0.50
2022-10-01T21:50:00.333Z,0.50
2022-10-01T21:53:44.189Z,1.00
2022-10-01T21:57:14.317Z,0.40
2022-10-01T22:00:50.254Z,0.40
2022-10-01T22:04:06.684Z,0.40
2022-10-01T22:07:29.277Z,0.40
2022-10-01T22:10:19.959Z,0.50
2022-10-01T22:13:11.908Z,0.40
2022-10-01T22:16:00.633Z,0.40
2022-10-01T22:19:00.284Z,0.40
2022-10-01T22:22:05.733Z,0.50
2022-10-01T22:25:20.590Z,0.70
2022-10-01T22:28:26.264Z,0.60
2022-10-01T22:31:24.034Z,0.80
2022-10-01T22:34:25.526Z,1.00
2022-10-01T22:37:28.263Z,1.10
2022-10-01T22:40:22.748Z,1.30
2022-10-01T22:47:10.340Z,1.90
2022-10-01T22:50:10.306Z,1.70
2022-10-01T22:53:20.101Z,2.40
2022-10-01T22:56:23.433Z,0.90
2022-10-01T22:59:22.318Z,1.90
2022-10-01T23:02:46.277Z,1.40
2022-10-01T23:06:10.260Z,1.20
2022-10-01T23:08:50.165Z,0.80
2022-10-01T23:12:01.732Z,0.40
2022-10-01T23:15:19.653Z,0.50
2022-10-01T23:18:24.346Z,0.40
2022-10-01T23:21:10.152Z,3.50
2022-10-01T23:24:39.030Z,0.60
2022-10-01T23:27:45.353Z,0.50
2022-10-01T23:30:30.860Z,0.60
2022-10-01T23:33:42.709Z,0.60
2022-10-01T23:36:45.344Z,0.60
2022-10-01T23:39:40.610Z,0.70
2022-10-01T23:42:28.376Z,0.40
2022-10-01T23:45:34.705Z,0.80
2022-10-01T23:48:19.246Z,0.60
2022-10-01T23:51:10.963Z,0.40
2022-10-01T23:54:42.086Z,0.60
2022-10-01T23:57:42.581Z,0.60
